sensor_id;sensor_type;location;lat;lon;timestamp;P1;durP1;ratioP1;P2;durP2;ratioP2
84431;SDS011;74658;51.736;7.038;2023-12-20T00:03:14;78.80;;;16.80;;
84431;SDS011;74658;51.736;7.038;2023-12-20T00:08:15;58.40;;;14.90;;
84431;SDS011;74658;51.736;7.038;2023-12-20T00:13:16;57.90;;;14.90;;
84431;SDS011;74658;51.736;7.038;2023-12-20T00:18:16;54.30;;;13.30;;
84431;SDS011;74658;51.736;7.038;2023-12-20T00:23:17;42.10;;;11.50;;
84431;SDS011;74658;51.736;7.038;2023-12-20T00:28:18;37.30;;;10.60;;
84431;SDS011;74658;51.736;7.038;2023-12-20T00:33:18;38.80;;;10.40;;
84431;SDS011;74658;51.736;7.038;2023-12-20T00:38:19;49.60;;;11.90;;
84431;SDS011;74658;51.736;7.038;2023-12-20T00:43:19;37.80;;;10.00;;
84431;SDS011;74658;51.736;7.038;2023-12-20T00:48:20;36.40;;;9.60;;
84431;SDS011;74658;51.736;7.038;2023-12-20T00:53:21;37.20;;;8.50;;
84431;SDS011;74658;51.736;7.038;2023-12-20T00:58:21;28.80;;;7.80;;
84431;SDS011;74658;51.736;7.038;2023-12-20T01:03:22;24.80;;;7.60;;
84431;SDS011;74658;51.736;7.038;2023-12-20T01:08:22;24.10;;;6.30;;
84431;SDS011;74658;51.736;7.038;2023-12-20T01:13:23;27.60;;;6.20;;
84431;SDS011;74658;51.736;7.038;2023-12-20T01:18:24;21.00;;;5.20;;
84431;SDS011;74658;51.736;7.038;2023-12-20T01:23:24;28.20;;;6.00;;
84431;SDS011;74658;51.736;7.038;2023-12-20T01:28:28;21.80;;;4.90;;
84431;SDS011;74658;51.736;7.038;2023-12-20T01:33:27;19.60;;;5.10;;
84431;SDS011;74658;51.736;7.038;2023-12-20T01:38:27;21.30;;;5.20;;
84431;SDS011;74658;51.736;7.038;2023-12-20T01:43:29;19.60;;;5.30;;
84431;SDS011;74658;51.736;7.038;2023-12-20T01:48:28;23.50;;;5.90;;
84431;SDS011;74658;51.736;7.038;2023-12-20T01:53:29;28.80;;;7.00;;
84431;SDS011;74658;51.736;7.038;2023-12-20T01:58:30;21.10;;;7.10;;
84431;SDS011;74658;51.736;7.038;2023-12-20T02:03:30;23.60;;;6.60;;
84431;SDS011;74658;51.736;7.038;2023-12-20T02:08:32;26.00;;;7.70;;
84431;SDS011;74658;51.736;7.038;2023-12-20T02:13:33;26.50;;;6.80;;
84431;SDS011;74658;51.736;7.038;2023-12-20T02:18:33;22.90;;;6.00;;
84431;SDS011;74658;51.736;7.038;2023-12-20T02:23:34;27.10;;;6.30;;
84431;SDS011;74658;51.736;7.038;2023-12-20T02:28:34;26.30;;;5.90;;
84431;SDS011;74658;51.736;7.038;2023-12-20T02:33:35;31.10;;;6.50;;
84431;SDS011;74658;51.736;7.038;2023-12-20T02:38:36;25.40;;;5.50;;
84431;SDS011;74658;51.736;7.038;2023-12-20T02:43:36;28.30;;;6.80;;
84431;SDS011;74658;51.736;7.038;2023-12-20T02:48:37;31.40;;;7.30;;
84431;SDS011;74658;51.736;7.038;2023-12-20T02:53:37;22.40;;;6.20;;
84431;SDS011;74658;51.736;7.038;2023-12-20T02:58:38;29.30;;;6.20;;
84431;SDS011;74658;51.736;7.038;2023-12-20T03:03:39;23.00;;;6.20;;
84431;SDS011;74658;51.736;7.038;2023-12-20T03:08:39;27.10;;;6.20;;
84431;SDS011;74658;51.736;7.038;2023-12-20T03:13:40;27.30;;;6.10;;
84431;SDS011;74658;51.736;7.038;2023-12-20T03:18:41;25.90;;;6.30;;
84431;SDS011;74658;51.736;7.038;2023-12-20T03:23:41;30.10;;;7.30;;
84431;SDS011;74658;51.736;7.038;2023-12-20T03:28:52;36.00;;;8.60;;
84431;SDS011;74658;51.736;7.038;2023-12-20T03:33:43;35.00;;;8.40;;
84431;SDS011;74658;51.736;7.038;2023-12-20T03:38:43;32.30;;;8.40;;
84431;SDS011;74658;51.736;7.038;2023-12-20T03:43:44;34.40;;;8.60;;
84431;SDS011;74658;51.736;7.038;2023-12-20T03:48:44;35.80;;;9.50;;
84431;SDS011;74658;51.736;7.038;2023-12-20T03:53:45;38.60;;;10.10;;
84431;SDS011;74658;51.736;7.038;2023-12-20T03:58:46;33.60;;;9.30;;
84431;SDS011;74658;51.736;7.038;2023-12-20T04:03:46;29.00;;;7.80;;
84431;SDS011;74658;51.736;7.038;2023-12-20T04:08:47;30.40;;;7.90;;
84431;SDS011;74658;51.736;7.038;2023-12-20T04:13:47;29.00;;;7.60;;
84431;SDS011;74658;51.736;7.038;2023-12-20T04:18:48;28.00;;;8.10;;
84431;SDS011;74658;51.736;7.038;2023-12-20T04:23:49;29.50;;;8.20;;
84431;SDS011;74658;51.736;7.038;2023-12-20T04:28:49;28.90;;;7.10;;
84431;SDS011;74658;51.736;7.038;2023-12-20T04:33:50;31.40;;;6.40;;
84431;SDS011;74658;51.736;7.038;2023-12-20T04:38:50;25.40;;;7.20;;
84431;SDS011;74658;51.736;7.038;2023-12-20T04:43:51;27.40;;;7.90;;
84431;SDS011;74658;51.736;7.038;2023-12-20T04:48:52;24.00;;;6.90;;
84431;SDS011;74658;51.736;7.038;2023-12-20T04:53:52;22.50;;;8.10;;
84431;SDS011;74658;51.736;7.038;2023-12-20T04:58:53;25.00;;;8.80;;
84431;SDS011;74658;51.736;7.038;2023-12-20T05:03:54;34.00;;;8.50;;
84431;SDS011;74658;51.736;7.038;2023-12-20T05:08:54;34.80;;;7.30;;
84431;SDS011;74658;51.736;7.038;2023-12-20T05:13:55;24.10;;;5.80;;
84431;SDS011;74658;51.736;7.038;2023-12-20T05:18:55;26.70;;;6.40;;
84431;SDS011;74658;51.736;7.038;2023-12-20T05:23:56;27.70;;;7.00;;
84431;SDS011;74658;51.736;7.038;2023-12-20T05:28:57;26.60;;;6.50;;
84431;SDS011;74658;51.736;7.038;2023-12-20T05:33:57;28.40;;;6.60;;
84431;SDS011;74658;51.736;7.038;2023-12-20T05:38:58;24.90;;;6.30;;
84431;SDS011;74658;51.736;7.038;2023-12-20T05:43:58;26.60;;;6.30;;
84431;SDS011;74658;51.736;7.038;2023-12-20T05:48:59;22.30;;;6.00;;
84431;SDS011;74658;51.736;7.038;2023-12-20T05:54:00;21.40;;;5.80;;
84431;SDS011;74658;51.736;7.038;2023-12-20T05:59:00;30.60;;;7.50;;
84431;SDS011;74658;51.736;7.038;2023-12-20T06:04:01;33.10;;;8.20;;
84431;SDS011;74658;51.736;7.038;2023-12-20T06:09:02;23.90;;;7.10;;
84431;SDS011;74658;51.736;7.038;2023-12-20T06:14:02;24.70;;;6.90;;
84431;SDS011;74658;51.736;7.038;2023-12-20T06:19:03;26.10;;;6.10;;
84431;SDS011;74658;51.736;7.038;2023-12-20T06:24:04;25.20;;;6.00;;
84431;SDS011;74658;51.736;7.038;2023-12-20T06:29:04;28.60;;;6.80;;
84431;SDS011;74658;51.736;7.038;2023-12-20T06:34:05;27.20;;;7.50;;
84431;SDS011;74658;51.736;7.038;2023-12-20T06:39:05;31.20;;;8.20;;
84431;SDS011;74658;51.736;7.038;2023-12-20T06:44:06;30.30;;;7.20;;
84431;SDS011;74658;51.736;7.038;2023-12-20T06:49:06;30.50;;;7.20;;
84431;SDS011;74658;51.736;7.038;2023-12-20T06:54:07;31.40;;;7.50;;
84431;SDS011;74658;51.736;7.038;2023-12-20T06:59:08;29.80;;;7.60;;
84431;SDS011;74658;51.736;7.038;2023-12-20T07:04:08;28.20;;;8.10;;
84431;SDS011;74658;51.736;7.038;2023-12-20T07:09:09;30.00;;;9.20;;
84431;SDS011;74658;51.736;7.038;2023-12-20T07:14:09;24.50;;;8.00;;
84431;SDS011;74658;51.736;7.038;2023-12-20T07:19:10;24.00;;;6.90;;
84431;SDS011;74658;51.736;7.038;2023-12-20T07:24:10;23.30;;;7.00;;
84431;SDS011;74658;51.736;7.038;2023-12-20T07:29:11;26.70;;;8.70;;
84431;SDS011;74658;51.736;7.038;2023-12-20T07:34:12;33.80;;;7.80;;
84431;SDS011;74658;51.736;7.038;2023-12-20T07:39:12;35.90;;;7.80;;
84431;SDS011;74658;51.736;7.038;2023-12-20T07:44:13;33.40;;;7.70;;
84431;SDS011;74658;51.736;7.038;2023-12-20T07:49:13;23.40;;;6.20;;
84431;SDS011;74658;51.736;7.038;2023-12-20T07:54:14;30.80;;;7.60;;
84431;SDS011;74658;51.736;7.038;2023-12-20T07:59:15;28.10;;;7.20;;
84431;SDS011;74658;51.736;7.038;2023-12-20T08:04:15;21.10;;;6.30;;
84431;SDS011;74658;51.736;7.038;2023-12-20T08:09:16;21.60;;;7.10;;
84431;SDS011;74658;51.736;7.038;2023-12-20T08:14:17;23.40;;;6.00;;
84431;SDS011;74658;51.736;7.038;2023-12-20T08:19:17;29.90;;;6.40;;
84431;SDS011;74658;51.736;7.038;2023-12-20T08:24:18;20.60;;;5.20;;
84431;SDS011;74658;51.736;7.038;2023-12-20T08:29:18;23.00;;;6.10;;
84431;SDS011;74658;51.736;7.038;2023-12-20T08:34:19;24.00;;;6.50;;
84431;SDS011;74658;51.736;7.038;2023-12-20T08:39:20;25.40;;;6.90;;
84431;SDS011;74658;51.736;7.038;2023-12-20T08:44:20;26.40;;;6.40;;
84431;SDS011;74658;51.736;7.038;2023-12-20T08:49:21;34.60;;;7.20;;
84431;SDS011;74658;51.736;7.038;2023-12-20T08:54:21;20.00;;;5.80;;
84431;SDS011;74658;51.736;7.038;2023-12-20T08:59:22;21.50;;;5.60;;
84431;SDS011;74658;51.736;7.038;2023-12-20T09:04:23;24.20;;;6.30;;
84431;SDS011;74658;51.736;7.038;2023-12-20T09:09:23;25.80;;;5.70;;
84431;SDS011;74658;51.736;7.038;2023-12-20T09:14:29;23.80;;;5.60;;
84431;SDS011;74658;51.736;7.038;2023-12-20T09:19:24;21.60;;;6.20;;
84431;SDS011;74658;51.736;7.038;2023-12-20T09:24:25;21.70;;;5.30;;
84431;SDS011;74658;51.736;7.038;2023-12-20T09:29:26;22.10;;;5.10;;
84431;SDS011;74658;51.736;7.038;2023-12-20T09:34:26;17.90;;;5.70;;
84431;SDS011;74658;51.736;7.038;2023-12-20T09:39:27;29.80;;;6.40;;
84431;SDS011;74658;51.736;7.038;2023-12-20T09:44:28;16.20;;;5.00;;
84431;SDS011;74658;51.736;7.038;2023-12-20T09:49:28;17.60;;;5.00;;
84431;SDS011;74658;51.736;7.038;2023-12-20T09:54:29;31.00;;;5.80;;
84431;SDS011;74658;51.736;7.038;2023-12-20T09:59:29;26.60;;;5.50;;
84431;SDS011;74658;51.736;7.038;2023-12-20T10:04:31;25.60;;;6.00;;
84431;SDS011;74658;51.736;7.038;2023-12-20T10:09:31;24.60;;;5.60;;
84431;SDS011;74658;51.736;7.038;2023-12-20T10:14:32;26.70;;;6.00;;
84431;SDS011;74658;51.736;7.038;2023-12-20T10:19:32;27.90;;;6.20;;
84431;SDS011;74658;51.736;7.038;2023-12-20T10:24:32;22.40;;;5.70;;
84431;SDS011;74658;51.736;7.038;2023-12-20T10:29:33;24.80;;;6.20;;
84431;SDS011;74658;51.736;7.038;2023-12-20T10:34:33;28.70;;;6.60;;
84431;SDS011;74658;51.736;7.038;2023-12-20T10:39:34;25.10;;;6.40;;
84431;SDS011;74658;51.736;7.038;2023-12-20T10:44:35;21.60;;;5.50;;
84431;SDS011;74658;51.736;7.038;2023-12-20T10:49:36;20.40;;;5.90;;
84431;SDS011;74658;51.736;7.038;2023-12-20T10:54:36;24.90;;;6.40;;
84431;SDS011;74658;51.736;7.038;2023-12-20T10:59:37;22.70;;;6.60;;
84431;SDS011;74658;51.736;7.038;2023-12-20T11:04:39;19.00;;;5.70;;
84431;SDS011;74658;51.736;7.038;2023-12-20T11:09:38;25.80;;;6.90;;
84431;SDS011;74658;51.736;7.038;2023-12-20T11:14:39;19.60;;;6.00;;
84431;SDS011;74658;51.736;7.038;2023-12-20T11:19:43;27.80;;;7.40;;
84431;SDS011;74658;51.736;7.038;2023-12-20T11:24:43;32.70;;;7.30;;
84431;SDS011;74658;51.736;7.038;2023-12-20T11:29:40;31.00;;;6.90;;
84431;SDS011;74658;51.736;7.038;2023-12-20T11:34:41;25.10;;;5.70;;
84431;SDS011;74658;51.736;7.038;2023-12-20T11:39:43;24.60;;;6.50;;
84431;SDS011;74658;51.736;7.038;2023-12-20T11:44:42;24.70;;;7.30;;
84431;SDS011;74658;51.736;7.038;2023-12-20T11:49:42;28.40;;;6.90;;
84431;SDS011;74658;51.736;7.038;2023-12-20T11:54:43;23.90;;;7.10;;
84431;SDS011;74658;51.736;7.038;2023-12-20T11:59:44;22.80;;;6.20;;
84431;SDS011;74658;51.736;7.038;2023-12-20T12:04:44;22.20;;;6.10;;
84431;SDS011;74658;51.736;7.038;2023-12-20T12:09:45;23.40;;;6.70;;
84431;SDS011;74658;51.736;7.038;2023-12-20T12:14:46;22.30;;;7.40;;
84431;SDS011;74658;51.736;7.038;2023-12-20T12:19:46;21.40;;;6.10;;
84431;SDS011;74658;51.736;7.038;2023-12-20T12:24:47;31.40;;;7.40;;
84431;SDS011;74658;51.736;7.038;2023-12-20T12:30:00;26.40;;;6.90;;
84431;SDS011;74658;51.736;7.038;2023-12-20T12:34:48;19.30;;;5.90;;
84431;SDS011;74658;51.736;7.038;2023-12-20T12:39:49;20.20;;;5.40;;
84431;SDS011;74658;51.736;7.038;2023-12-20T12:44:49;22.50;;;5.90;;
84431;SDS011;74658;51.736;7.038;2023-12-20T12:49:51;18.80;;;5.80;;
84431;SDS011;74658;51.736;7.038;2023-12-20T12:54:51;27.20;;;6.90;;
84431;SDS011;74658;51.736;7.038;2023-12-20T12:59:51;18.60;;;5.30;;
84431;SDS011;74658;51.736;7.038;2023-12-20T13:04:52;27.90;;;6.40;;
84431;SDS011;74658;51.736;7.038;2023-12-20T13:09:52;21.50;;;6.60;;
84431;SDS011;74658;51.736;7.038;2023-12-20T13:14:53;24.80;;;6.90;;
84431;SDS011;74658;51.736;7.038;2023-12-20T13:19:54;26.60;;;7.10;;
84431;SDS011;74658;51.736;7.038;2023-12-20T13:24:54;20.10;;;6.90;;
84431;SDS011;74658;51.736;7.038;2023-12-20T13:29:55;19.30;;;6.50;;
84431;SDS011;74658;51.736;7.038;2023-12-20T13:34:56;26.50;;;7.20;;
84431;SDS011;74658;51.736;7.038;2023-12-20T13:39:56;22.80;;;6.90;;
84431;SDS011;74658;51.736;7.038;2023-12-20T13:44:57;22.00;;;7.60;;
84431;SDS011;74658;51.736;7.038;2023-12-20T13:49:57;21.80;;;6.40;;
84431;SDS011;74658;51.736;7.038;2023-12-20T13:55:08;21.20;;;7.30;;
84431;SDS011;74658;51.736;7.038;2023-12-20T13:59:59;23.00;;;7.40;;
84431;SDS011;74658;51.736;7.038;2023-12-20T14:04:59;17.30;;;7.60;;
84431;SDS011;74658;51.736;7.038;2023-12-20T14:10:00;25.60;;;9.30;;
84431;SDS011;74658;51.736;7.038;2023-12-20T14:15:00;23.70;;;8.00;;
84431;SDS011;74658;51.736;7.038;2023-12-20T14:20:01;25.30;;;8.70;;
84431;SDS011;74658;51.736;7.038;2023-12-20T14:25:02;26.50;;;9.00;;
84431;SDS011;74658;51.736;7.038;2023-12-20T14:30:02;25.10;;;8.20;;
84431;SDS011;74658;51.736;7.038;2023-12-20T14:35:03;22.80;;;7.60;;
84431;SDS011;74658;51.736;7.038;2023-12-20T14:35:03;22.80;;;7.60;;
84431;SDS011;74658;51.736;7.038;2023-12-20T14:40:03;20.90;;;8.00;;
84431;SDS011;74658;51.736;7.038;2023-12-20T14:45:04;27.00;;;9.00;;
84431;SDS011;74658;51.736;7.038;2023-12-20T14:50:05;30.00;;;9.50;;
84431;SDS011;74658;51.736;7.038;2023-12-20T14:55:05;29.60;;;9.00;;
84431;SDS011;74658;51.736;7.038;2023-12-20T15:00:06;27.10;;;9.60;;
84431;SDS011;74658;51.736;7.038;2023-12-20T15:05:06;28.60;;;9.70;;
84431;SDS011;74658;51.736;7.038;2023-12-20T15:10:07;32.80;;;9.60;;
84431;SDS011;74658;51.736;7.038;2023-12-20T15:15:08;31.90;;;9.20;;
84431;SDS011;74658;51.736;7.038;2023-12-20T15:20:08;31.60;;;9.90;;
84431;SDS011;74658;51.736;7.038;2023-12-20T15:25:09;32.10;;;10.40;;
84431;SDS011;74658;51.736;7.038;2023-12-20T15:30:10;34.40;;;10.50;;
84431;SDS011;74658;51.736;7.038;2023-12-20T15:35:10;32.10;;;11.00;;
84431;SDS011;74658;51.736;7.038;2023-12-20T15:40:11;26.70;;;9.80;;
84431;SDS011;74658;51.736;7.038;2023-12-20T15:45:11;29.00;;;9.60;;
84431;SDS011;74658;51.736;7.038;2023-12-20T15:50:11;27.90;;;11.00;;
84431;SDS011;74658;51.736;7.038;2023-12-20T15:55:12;30.70;;;10.30;;
84431;SDS011;74658;51.736;7.038;2023-12-20T16:00:13;32.70;;;9.40;;
84431;SDS011;74658;51.736;7.038;2023-12-20T16:05:13;29.30;;;9.50;;
84431;SDS011;74658;51.736;7.038;2023-12-20T16:10:14;32.60;;;9.40;;
84431;SDS011;74658;51.736;7.038;2023-12-20T16:15:15;27.10;;;8.70;;
84431;SDS011;74658;51.736;7.038;2023-12-20T16:20:15;29.40;;;9.60;;
84431;SDS011;74658;51.736;7.038;2023-12-20T16:25:16;32.50;;;11.80;;
84431;SDS011;74658;51.736;7.038;2023-12-20T16:30:16;27.70;;;9.80;;
84431;SDS011;74658;51.736;7.038;2023-12-20T16:35:17;24.70;;;9.40;;
84431;SDS011;74658;51.736;7.038;2023-12-20T16:40:18;29.40;;;10.00;;
84431;SDS011;74658;51.736;7.038;2023-12-20T16:45:18;32.90;;;9.30;;
84431;SDS011;74658;51.736;7.038;2023-12-20T16:50:19;35.10;;;9.10;;
84431;SDS011;74658;51.736;7.038;2023-12-20T16:55:19;25.60;;;9.40;;
84431;SDS011;74658;51.736;7.038;2023-12-20T17:00:20;29.80;;;8.70;;
84431;SDS011;74658;51.736;7.038;2023-12-20T17:05:21;23.50;;;8.40;;
84431;SDS011;74658;51.736;7.038;2023-12-20T17:10:22;28.10;;;9.50;;
84431;SDS011;74658;51.736;7.038;2023-12-20T17:15:22;22.10;;;7.80;;
84431;SDS011;74658;51.736;7.038;2023-12-20T17:20:22;25.80;;;9.10;;
84431;SDS011;74658;51.736;7.038;2023-12-20T17:25:23;30.70;;;9.90;;
84431;SDS011;74658;51.736;7.038;2023-12-20T17:30:24;34.10;;;11.80;;
84431;SDS011;74658;51.736;7.038;2023-12-20T17:35:24;30.30;;;10.30;;
84431;SDS011;74658;51.736;7.038;2023-12-20T17:40:25;31.80;;;11.00;;
84431;SDS011;74658;51.736;7.038;2023-12-20T17:45:25;37.40;;;11.80;;
84431;SDS011;74658;51.736;7.038;2023-12-20T17:50:26;32.20;;;10.10;;
84431;SDS011;74658;51.736;7.038;2023-12-20T17:55:28;30.80;;;10.50;;
84431;SDS011;74658;51.736;7.038;2023-12-20T18:00:28;34.20;;;10.00;;
84431;SDS011;74658;51.736;7.038;2023-12-20T18:05:28;36.10;;;11.30;;
84431;SDS011;74658;51.736;7.038;2023-12-20T18:10:29;34.40;;;12.20;;
84431;SDS011;74658;51.736;7.038;2023-12-20T18:15:29;32.60;;;11.80;;
84431;SDS011;74658;51.736;7.038;2023-12-20T18:20:30;27.30;;;10.80;;
84431;SDS011;74658;51.736;7.038;2023-12-20T18:25:30;34.30;;;12.00;;
84431;SDS011;74658;51.736;7.038;2023-12-20T18:30:31;32.60;;;11.30;;
84431;SDS011;74658;51.736;7.038;2023-12-20T18:35:32;38.70;;;12.60;;
84431;SDS011;74658;51.736;7.038;2023-12-20T18:40:32;29.90;;;11.00;;
84431;SDS011;74658;51.736;7.038;2023-12-20T18:45:33;38.70;;;12.60;;
84431;SDS011;74658;51.736;7.038;2023-12-20T18:50:33;43.80;;;13.60;;
84431;SDS011;74658;51.736;7.038;2023-12-20T18:55:34;37.20;;;12.90;;
84431;SDS011;74658;51.736;7.038;2023-12-20T19:00:34;45.40;;;13.90;;
84431;SDS011;74658;51.736;7.038;2023-12-20T19:05:35;29.00;;;11.30;;
84431;SDS011;74658;51.736;7.038;2023-12-20T19:10:36;42.00;;;14.50;;
84431;SDS011;74658;51.736;7.038;2023-12-20T19:15:36;43.70;;;14.80;;
84431;SDS011;74658;51.736;7.038;2023-12-20T19:20:37;37.40;;;13.30;;
84431;SDS011;74658;51.736;7.038;2023-12-20T19:25:38;34.80;;;13.20;;
84431;SDS011;74658;51.736;7.038;2023-12-20T19:30:38;30.70;;;12.60;;
84431;SDS011;74658;51.736;7.038;2023-12-20T19:35:39;36.60;;;13.20;;
84431;SDS011;74658;51.736;7.038;2023-12-20T19:40:39;33.50;;;12.20;;
84431;SDS011;74658;51.736;7.038;2023-12-20T19:45:40;33.30;;;12.80;;
84431;SDS011;74658;51.736;7.038;2023-12-20T19:50:40;27.60;;;11.20;;
84431;SDS011;74658;51.736;7.038;2023-12-20T19:55:41;30.20;;;11.90;;
84431;SDS011;74658;51.736;7.038;2023-12-20T20:00:42;29.80;;;12.70;;
84431;SDS011;74658;51.736;7.038;2023-12-20T20:05:43;31.90;;;13.40;;
84431;SDS011;74658;51.736;7.038;2023-12-20T20:10:43;32.40;;;12.60;;
84431;SDS011;74658;51.736;7.038;2023-12-20T20:15:44;37.40;;;13.80;;
84431;SDS011;74658;51.736;7.038;2023-12-20T20:20:44;32.80;;;13.30;;
84431;SDS011;74658;51.736;7.038;2023-12-20T20:25:45;29.50;;;12.30;;
84431;SDS011;74658;51.736;7.038;2023-12-20T20:30:46;31.30;;;12.10;;
84431;SDS011;74658;51.736;7.038;2023-12-20T20:35:46;35.30;;;13.80;;
84431;SDS011;74658;51.736;7.038;2023-12-20T20:40:47;35.60;;;13.50;;
84431;SDS011;74658;51.736;7.038;2023-12-20T20:45:47;35.30;;;12.90;;
84431;SDS011;74658;51.736;7.038;2023-12-20T20:50:48;29.30;;;12.30;;
84431;SDS011;74658;51.736;7.038;2023-12-20T20:55:49;33.20;;;13.80;;
84431;SDS011;74658;51.736;7.038;2023-12-20T21:00:49;28.90;;;11.80;;
84431;SDS011;74658;51.736;7.038;2023-12-20T21:05:50;34.10;;;13.30;;
84431;SDS011;74658;51.736;7.038;2023-12-20T21:10:51;34.10;;;14.70;;
84431;SDS011;74658;51.736;7.038;2023-12-20T21:15:56;28.90;;;13.30;;
84431;SDS011;74658;51.736;7.038;2023-12-20T21:20:52;32.50;;;13.50;;
84431;SDS011;74658;51.736;7.038;2023-12-20T21:25:52;39.10;;;15.30;;
84431;SDS011;74658;51.736;7.038;2023-12-20T21:30:53;38.20;;;15.60;;
84431;SDS011;74658;51.736;7.038;2023-12-20T21:35:54;31.10;;;13.60;;
84431;SDS011;74658;51.736;7.038;2023-12-20T21:40:54;36.70;;;15.10;;
84431;SDS011;74658;51.736;7.038;2023-12-20T21:45:55;38.40;;;15.10;;
84431;SDS011;74658;51.736;7.038;2023-12-20T21:51:06;39.10;;;14.60;;
84431;SDS011;74658;51.736;7.038;2023-12-20T21:55:56;36.30;;;15.20;;
84431;SDS011;74658;51.736;7.038;2023-12-20T22:00:57;37.00;;;15.50;;
84431;SDS011;74658;51.736;7.038;2023-12-20T22:05:58;34.50;;;15.70;;
84431;SDS011;74658;51.736;7.038;2023-12-20T22:10:58;39.20;;;15.40;;
84431;SDS011;74658;51.736;7.038;2023-12-20T22:15:59;33.40;;;14.90;;
84431;SDS011;74658;51.736;7.038;2023-12-20T22:20:59;31.40;;;13.60;;
84431;SDS011;74658;51.736;7.038;2023-12-20T22:26:00;27.40;;;13.00;;
84431;SDS011;74658;51.736;7.038;2023-12-20T22:31:01;24.60;;;12.20;;
84431;SDS011;74658;51.736;7.038;2023-12-20T22:36:01;26.30;;;13.00;;
84431;SDS011;74658;51.736;7.038;2023-12-20T22:41:02;29.00;;;13.10;;
84431;SDS011;74658;51.736;7.038;2023-12-20T22:46:03;26.00;;;13.10;;
84431;SDS011;74658;51.736;7.038;2023-12-20T22:51:03;32.60;;;14.80;;
84431;SDS011;74658;51.736;7.038;2023-12-20T22:56:04;33.40;;;14.70;;
84431;SDS011;74658;51.736;7.038;2023-12-20T23:01:04;26.30;;;12.30;;
84431;SDS011;74658;51.736;7.038;2023-12-20T23:06:05;35.40;;;14.80;;
84431;SDS011;74658;51.736;7.038;2023-12-20T23:11:06;29.90;;;14.50;;
84431;SDS011;74658;51.736;7.038;2023-12-20T23:16:06;28.20;;;13.30;;
84431;SDS011;74658;51.736;7.038;2023-12-20T23:21:07;29.00;;;12.70;;
84431;SDS011;74658;51.736;7.038;2023-12-20T23:26:07;27.20;;;12.60;;
84431;SDS011;74658;51.736;7.038;2023-12-20T23:31:08;24.60;;;11.00;;
84431;SDS011;74658;51.736;7.038;2023-12-20T23:36:09;22.90;;;10.40;;
84431;SDS011;74658;51.736;7.038;2023-12-20T23:41:09;24.90;;;11.40;;
84431;SDS011;74658;51.736;7.038;2023-12-20T23:46:10;23.20;;;10.90;;
84431;SDS011;74658;51.736;7.038;2023-12-20T23:51:10;24.90;;;11.80;;
84431;SDS011;74658;51.736;7.038;2023-12-20T23:56:11;19.40;;;8.40;;
